sensor_id;sensor_type;location;lat;lon;timestamp;temperature;humidity
3942;DHT22;1985;48.592;8.850;2023-06-01T00:02:06;18.10;62.10
3942;DHT22;1985;48.592;8.850;2023-06-01T00:04:31;18.10;62.00
3942;DHT22;1985;48.592;8.850;2023-06-01T00:06:57;18.00;62.90
3942;DHT22;1985;48.592;8.850;2023-06-01T00:09:25;17.90;64.10
3942;DHT22;1985;48.592;8.850;2023-06-01T00:11:51;17.80;65.50
3942;DHT22;1985;48.592;8.850;2023-06-01T00:14:16;17.80;63.90
3942;DHT22;1985;48.592;8.850;2023-06-01T00:16:42;17.90;64.00
3942;DHT22;1985;48.592;8.850;2023-06-01T00:19:08;17.80;65.50
3942;DHT22;1985;48.592;8.850;2023-06-01T00:21:34;17.80;65.70
3942;DHT22;1985;48.592;8.850;2023-06-01T00:24:01;17.80;64.40
3942;DHT22;1985;48.592;8.850;2023-06-01T00:26:27;17.80;63.80
3942;DHT22;1985;48.592;8.850;2023-06-01T00:28:52;17.80;63.60
3942;DHT22;1985;48.592;8.850;2023-06-01T00:31:18;17.80;63.60
3942;DHT22;1985;48.592;8.850;2023-06-01T00:33:44;17.80;63.50
3942;DHT22;1985;48.592;8.850;2023-06-01T00:36:09;17.80;63.60
3942;DHT22;1985;48.592;8.850;2023-06-01T00:38:35;17.70;63.30
3942;DHT22;1985;48.592;8.850;2023-06-01T00:41:00;17.70;63.50
3942;DHT22;1985;48.592;8.850;2023-06-01T00:43:26;17.70;63.40
3942;DHT22;1985;48.592;8.850;2023-06-01T00:45:52;17.60;63.60
3942;DHT22;1985;48.592;8.850;2023-06-01T00:48:18;17.60;63.70
3942;DHT22;1985;48.592;8.850;2023-06-01T00:50:44;17.50;63.80
3942;DHT22;1985;48.592;8.850;2023-06-01T00:53:15;17.50;63.70
3942;DHT22;1985;48.592;8.850;2023-06-01T00:55:42;17.50;63.60
3942;DHT22;1985;48.592;8.850;2023-06-01T00:58:08;17.50;63.80
3942;DHT22;1985;48.592;8.850;2023-06-01T01:00:33;17.50;63.90
3942;DHT22;1985;48.592;8.850;2023-06-01T01:02:59;17.40;64.00
3942;DHT22;1985;48.592;8.850;2023-06-01T01:05:32;17.40;64.10
3942;DHT22;1985;48.592;8.850;2023-06-01T01:08:07;17.40;64.30
3942;DHT22;1985;48.592;8.850;2023-06-01T01:10:41;17.30;64.20
3942;DHT22;1985;48.592;8.850;2023-06-01T01:18:30;17.20;64.60
3942;DHT22;1985;48.592;8.850;2023-06-01T01:21:01;17.20;64.70
3942;DHT22;1985;48.592;8.850;2023-06-01T01:29:05;17.10;64.60
3942;DHT22;1985;48.592;8.850;2023-06-01T01:31:32;17.10;64.60
3942;DHT22;1985;48.592;8.850;2023-06-01T01:33:59;17.10;64.40
3942;DHT22;1985;48.592;8.850;2023-06-01T01:36:27;17.10;64.20
3942;DHT22;1985;48.592;8.850;2023-06-01T01:38:54;17.10;64.20
3942;DHT22;1985;48.592;8.850;2023-06-01T01:41:20;17.10;64.20
3942;DHT22;1985;48.592;8.850;2023-06-01T01:43:48;17.10;64.30
3942;DHT22;1985;48.592;8.850;2023-06-01T01:49:21;17.10;64.30
3942;DHT22;1985;48.592;8.850;2023-06-01T01:54:14;17.00;64.00
3942;DHT22;1985;48.592;8.850;2023-06-01T01:56:42;17.00;64.70
3942;DHT22;1985;48.592;8.850;2023-06-01T01:59:09;17.00;64.50
3942;DHT22;1985;48.592;8.850;2023-06-01T02:01:36;17.00;64.70
3942;DHT22;1985;48.592;8.850;2023-06-01T02:04:03;17.00;64.70
3942;DHT22;1985;48.592;8.850;2023-06-01T02:06:30;17.00;64.80
3942;DHT22;1985;48.592;8.850;2023-06-01T02:08:56;17.00;64.80
3942;DHT22;1985;48.592;8.850;2023-06-01T02:11:21;16.90;64.80
3942;DHT22;1985;48.592;8.850;2023-06-01T02:13:47;16.90;64.70
3942;DHT22;1985;48.592;8.850;2023-06-01T02:16:13;16.90;64.70
3942;DHT22;1985;48.592;8.850;2023-06-01T02:18:39;16.80;64.80
3942;DHT22;1985;48.592;8.850;2023-06-01T02:21:07;16.80;65.00
3942;DHT22;1985;48.592;8.850;2023-06-01T02:23:34;16.70;64.90
3942;DHT22;1985;48.592;8.850;2023-06-01T02:26:00;16.70;65.00
3942;DHT22;1985;48.592;8.850;2023-06-01T02:28:26;16.70;65.10
3942;DHT22;1985;48.592;8.850;2023-06-01T02:30:51;16.60;65.30
3942;DHT22;1985;48.592;8.850;2023-06-01T02:33:17;16.60;65.40
3942;DHT22;1985;48.592;8.850;2023-06-01T02:35:42;16.60;65.60
3942;DHT22;1985;48.592;8.850;2023-06-01T02:38:08;16.60;65.70
3942;DHT22;1985;48.592;8.850;2023-06-01T02:40:33;16.60;65.60
3942;DHT22;1985;48.592;8.850;2023-06-01T02:42:59;16.60;65.80
3942;DHT22;1985;48.592;8.850;2023-06-01T02:45:25;16.50;65.70
3942;DHT22;1985;48.592;8.850;2023-06-01T02:47:50;16.50;65.80
3942;DHT22;1985;48.592;8.850;2023-06-01T02:50:16;16.50;65.70
3942;DHT22;1985;48.592;8.850;2023-06-01T02:52:42;16.50;65.70
3942;DHT22;1985;48.592;8.850;2023-06-01T02:55:07;16.40;65.80
3942;DHT22;1985;48.592;8.850;2023-06-01T02:57:33;16.40;65.90
3942;DHT22;1985;48.592;8.850;2023-06-01T02:59:59;16.30;65.90
3942;DHT22;1985;48.592;8.850;2023-06-01T03:02:24;16.30;66.10
3942;DHT22;1985;48.592;8.850;2023-06-01T03:04:51;16.30;66.10
3942;DHT22;1985;48.592;8.850;2023-06-01T03:07:17;16.30;65.90
3942;DHT22;1985;48.592;8.850;2023-06-01T03:09:43;16.30;66.40
3942;DHT22;1985;48.592;8.850;2023-06-01T03:12:09;16.30;66.40
3942;DHT22;1985;48.592;8.850;2023-06-01T03:14:35;16.30;66.30
3942;DHT22;1985;48.592;8.850;2023-06-01T03:17:01;16.40;66.20
3942;DHT22;1985;48.592;8.850;2023-06-01T03:19:26;16.40;66.10
3942;DHT22;1985;48.592;8.850;2023-06-01T03:21:52;16.40;66.20
3942;DHT22;1985;48.592;8.850;2023-06-01T03:24:21;16.30;66.20
3942;DHT22;1985;48.592;8.850;2023-06-01T03:26:51;16.30;66.30
3942;DHT22;1985;48.592;8.850;2023-06-01T03:29:16;16.30;66.60
3942;DHT22;1985;48.592;8.850;2023-06-01T03:31:42;16.30;66.90
3942;DHT22;1985;48.592;8.850;2023-06-01T03:34:08;16.30;67.40
3942;DHT22;1985;48.592;8.850;2023-06-01T03:36:33;16.30;66.90
3942;DHT22;1985;48.592;8.850;2023-06-01T03:39:01;16.30;66.70
3942;DHT22;1985;48.592;8.850;2023-06-01T03:41:31;16.30;67.70
3942;DHT22;1985;48.592;8.850;2023-06-01T03:43:56;16.20;67.90
3942;DHT22;1985;48.592;8.850;2023-06-01T03:46:22;16.20;68.70
3942;DHT22;1985;48.592;8.850;2023-06-01T03:48:48;16.20;68.70
3942;DHT22;1985;48.592;8.850;2023-06-01T03:51:13;16.10;69.20
3942;DHT22;1985;48.592;8.850;2023-06-01T03:53:39;16.00;69.00
3942;DHT22;1985;48.592;8.850;2023-06-01T03:56:05;15.80;69.80
3942;DHT22;1985;48.592;8.850;2023-06-01T03:58:30;15.80;70.70
3942;DHT22;1985;48.592;8.850;2023-06-01T04:00:56;15.80;69.90
3942;DHT22;1985;48.592;8.850;2023-06-01T04:03:23;15.80;70.40
3942;DHT22;1985;48.592;8.850;2023-06-01T04:05:49;15.80;69.20
3942;DHT22;1985;48.592;8.850;2023-06-01T04:08:16;15.90;68.30
3942;DHT22;1985;48.592;8.850;2023-06-01T04:10:42;15.80;69.30
3942;DHT22;1985;48.592;8.850;2023-06-01T04:13:08;15.70;71.50
3942;DHT22;1985;48.592;8.850;2023-06-01T04:15:33;15.70;71.70
3942;DHT22;1985;48.592;8.850;2023-06-01T04:17:59;15.80;71.90
3942;DHT22;1985;48.592;8.850;2023-06-01T04:20:24;15.80;71.90
3942;DHT22;1985;48.592;8.850;2023-06-01T04:22:50;16.00;71.50
3942;DHT22;1985;48.592;8.850;2023-06-01T04:25:16;16.10;70.40
3942;DHT22;1985;48.592;8.850;2023-06-01T04:27:44;16.30;69.70
3942;DHT22;1985;48.592;8.850;2023-06-01T04:30:11;16.40;69.50
3942;DHT22;1985;48.592;8.850;2023-06-01T04:32:37;16.50;69.00
3942;DHT22;1985;48.592;8.850;2023-06-01T04:35:07;16.70;69.20
3942;DHT22;1985;48.592;8.850;2023-06-01T04:37:34;16.70;68.80
3942;DHT22;1985;48.592;8.850;2023-06-01T04:40:01;16.80;68.50
3942;DHT22;1985;48.592;8.850;2023-06-01T04:42:31;16.90;68.40
3942;DHT22;1985;48.592;8.850;2023-06-01T04:44:57;16.90;68.40
3942;DHT22;1985;48.592;8.850;2023-06-01T04:47:23;16.90;69.00
3942;DHT22;1985;48.592;8.850;2023-06-01T04:49:49;16.90;68.70
3942;DHT22;1985;48.592;8.850;2023-06-01T04:52:15;17.00;68.40
3942;DHT22;1985;48.592;8.850;2023-06-01T04:54:40;17.10;69.00
3942;DHT22;1985;48.592;8.850;2023-06-01T04:57:06;17.10;69.10
3942;DHT22;1985;48.592;8.850;2023-06-01T04:59:34;17.20;68.90
3942;DHT22;1985;48.592;8.850;2023-06-01T05:02:00;17.20;69.80
3942;DHT22;1985;48.592;8.850;2023-06-01T05:04:26;17.20;70.10
3942;DHT22;1985;48.592;8.850;2023-06-01T05:06:52;17.20;69.80
3942;DHT22;1985;48.592;8.850;2023-06-01T05:09:17;17.20;69.60
3942;DHT22;1985;48.592;8.850;2023-06-01T05:11:44;17.20;69.60
3942;DHT22;1985;48.592;8.850;2023-06-01T05:14:09;17.20;69.10
3942;DHT22;1985;48.592;8.850;2023-06-01T05:16:35;17.30;69.20
3942;DHT22;1985;48.592;8.850;2023-06-01T05:19:01;17.30;69.60
3942;DHT22;1985;48.592;8.850;2023-06-01T05:21:27;17.40;69.80
3942;DHT22;1985;48.592;8.850;2023-06-01T05:23:53;17.40;69.60
3942;DHT22;1985;48.592;8.850;2023-06-01T05:26:19;17.50;70.00
3942;DHT22;1985;48.592;8.850;2023-06-01T05:28:44;17.50;69.70
3942;DHT22;1985;48.592;8.850;2023-06-01T05:31:10;17.50;70.10
3942;DHT22;1985;48.592;8.850;2023-06-01T05:33:36;17.60;70.00
3942;DHT22;1985;48.592;8.850;2023-06-01T05:36:02;17.60;70.10
3942;DHT22;1985;48.592;8.850;2023-06-01T05:38:28;17.60;70.30
3942;DHT22;1985;48.592;8.850;2023-06-01T05:40:54;17.70;70.20
3942;DHT22;1985;48.592;8.850;2023-06-01T05:43:20;17.90;69.90
3942;DHT22;1985;48.592;8.850;2023-06-01T05:45:45;17.90;70.50
3942;DHT22;1985;48.592;8.850;2023-06-01T05:48:11;18.00;70.50
3942;DHT22;1985;48.592;8.850;2023-06-01T05:50:39;18.10;70.60
3942;DHT22;1985;48.592;8.850;2023-06-01T05:53:06;18.20;70.40
3942;DHT22;1985;48.592;8.850;2023-06-01T05:55:32;18.20;70.60
3942;DHT22;1985;48.592;8.850;2023-06-01T05:57:57;18.20;70.50
3942;DHT22;1985;48.592;8.850;2023-06-01T06:00:23;18.30;70.20
3942;DHT22;1985;48.592;8.850;2023-06-01T06:02:49;18.40;69.80
3942;DHT22;1985;48.592;8.850;2023-06-01T06:05:15;18.40;68.90
3942;DHT22;1985;48.592;8.850;2023-06-01T06:07:41;18.50;68.50
3942;DHT22;1985;48.592;8.850;2023-06-01T06:10:07;18.50;68.70
3942;DHT22;1985;48.592;8.850;2023-06-01T06:12:33;18.50;68.70
3942;DHT22;1985;48.592;8.850;2023-06-01T06:14:59;18.50;69.90
3942;DHT22;1985;48.592;8.850;2023-06-01T06:17:24;18.50;70.70
3942;DHT22;1985;48.592;8.850;2023-06-01T06:19:50;18.60;70.40
3942;DHT22;1985;48.592;8.850;2023-06-01T06:22:16;18.70;69.80
3942;DHT22;1985;48.592;8.850;2023-06-01T06:24:42;18.80;69.70
3942;DHT22;1985;48.592;8.850;2023-06-01T06:27:09;18.90;69.00
3942;DHT22;1985;48.592;8.850;2023-06-01T06:29:35;19.10;68.20
3942;DHT22;1985;48.592;8.850;2023-06-01T06:32:00;19.10;66.10
3942;DHT22;1985;48.592;8.850;2023-06-01T06:34:26;19.30;64.70
3942;DHT22;1985;48.592;8.850;2023-06-01T06:36:52;19.40;63.80
3942;DHT22;1985;48.592;8.850;2023-06-01T06:39:18;19.50;63.40
3942;DHT22;1985;48.592;8.850;2023-06-01T06:41:44;19.50;63.50
3942;DHT22;1985;48.592;8.850;2023-06-01T06:44:09;19.60;63.20
3942;DHT22;1985;48.592;8.850;2023-06-01T06:46:35;19.70;63.50
3942;DHT22;1985;48.592;8.850;2023-06-01T06:49:01;19.80;63.80
3942;DHT22;1985;48.592;8.850;2023-06-01T06:51:26;19.80;63.70
3942;DHT22;1985;48.592;8.850;2023-06-01T06:53:52;19.90;64.00
3942;DHT22;1985;48.592;8.850;2023-06-01T06:56:17;19.90;64.50
3942;DHT22;1985;48.592;8.850;2023-06-01T06:58:44;20.00;64.30
3942;DHT22;1985;48.592;8.850;2023-06-01T07:01:10;20.00;63.70
3942;DHT22;1985;48.592;8.850;2023-06-01T07:03:36;20.00;64.50
3942;DHT22;1985;48.592;8.850;2023-06-01T07:06:03;20.10;64.30
3942;DHT22;1985;48.592;8.850;2023-06-01T07:08:29;20.20;62.50
3942;DHT22;1985;48.592;8.850;2023-06-01T07:11:00;20.30;62.50
3942;DHT22;1985;48.592;8.850;2023-06-01T07:13:26;20.30;63.10
3942;DHT22;1985;48.592;8.850;2023-06-01T07:15:53;20.40;62.80
3942;DHT22;1985;48.592;8.850;2023-06-01T07:18:18;20.40;62.50
3942;DHT22;1985;48.592;8.850;2023-06-01T07:20:44;20.50;62.90
3942;DHT22;1985;48.592;8.850;2023-06-01T07:23:09;20.50;62.90
3942;DHT22;1985;48.592;8.850;2023-06-01T07:25:37;20.50;62.50
3942;DHT22;1985;48.592;8.850;2023-06-01T07:28:03;20.50;62.80
3942;DHT22;1985;48.592;8.850;2023-06-01T07:30:33;20.50;62.90
3942;DHT22;1985;48.592;8.850;2023-06-01T07:32:59;20.60;62.50
3942;DHT22;1985;48.592;8.850;2023-06-01T07:35:25;20.70;62.70
3942;DHT22;1985;48.592;8.850;2023-06-01T07:37:50;20.80;62.60
3942;DHT22;1985;48.592;8.850;2023-06-01T07:40:16;20.90;62.50
3942;DHT22;1985;48.592;8.850;2023-06-01T07:42:42;20.90;61.60
3942;DHT22;1985;48.592;8.850;2023-06-01T07:45:08;21.00;61.70
3942;DHT22;1985;48.592;8.850;2023-06-01T07:47:34;21.10;61.80
3942;DHT22;1985;48.592;8.850;2023-06-01T07:50:00;21.10;62.80
3942;DHT22;1985;48.592;8.850;2023-06-01T07:52:26;21.20;62.10
3942;DHT22;1985;48.592;8.850;2023-06-01T07:54:52;21.20;62.10
3942;DHT22;1985;48.592;8.850;2023-06-01T07:57:17;21.30;62.60
3942;DHT22;1985;48.592;8.850;2023-06-01T07:59:43;21.30;62.90
3942;DHT22;1985;48.592;8.850;2023-06-01T08:02:09;21.40;63.80
3942;DHT22;1985;48.592;8.850;2023-06-01T08:04:36;21.50;63.50
3942;DHT22;1985;48.592;8.850;2023-06-01T08:07:03;21.60;64.10
3942;DHT22;1985;48.592;8.850;2023-06-01T08:09:29;21.60;62.90
3942;DHT22;1985;48.592;8.850;2023-06-01T08:11:55;21.70;62.90
3942;DHT22;1985;48.592;8.850;2023-06-01T08:14:21;21.80;61.90
3942;DHT22;1985;48.592;8.850;2023-06-01T08:16:47;21.80;62.10
3942;DHT22;1985;48.592;8.850;2023-06-01T08:19:13;21.80;62.10
3942;DHT22;1985;48.592;8.850;2023-06-01T08:21:39;21.80;62.30
3942;DHT22;1985;48.592;8.850;2023-06-01T08:24:07;21.90;62.60
3942;DHT22;1985;48.592;8.850;2023-06-01T08:26:34;21.90;62.30
3942;DHT22;1985;48.592;8.850;2023-06-01T08:29:00;22.00;62.20
3942;DHT22;1985;48.592;8.850;2023-06-01T08:31:26;21.90;62.40
3942;DHT22;1985;48.592;8.850;2023-06-01T08:33:52;22.00;63.20
3942;DHT22;1985;48.592;8.850;2023-06-01T08:36:19;22.10;63.70
3942;DHT22;1985;48.592;8.850;2023-06-01T08:38:45;22.20;62.30
3942;DHT22;1985;48.592;8.850;2023-06-01T08:41:21;22.30;62.80
3942;DHT22;1985;48.592;8.850;2023-06-01T08:43:54;22.40;63.00
3942;DHT22;1985;48.592;8.850;2023-06-01T08:46:21;22.60;63.10
3942;DHT22;1985;48.592;8.850;2023-06-01T08:48:53;22.70;63.40
3942;DHT22;1985;48.592;8.850;2023-06-01T08:51:22;22.80;61.90
3942;DHT22;1985;48.592;8.850;2023-06-01T08:53:49;22.70;61.70
3942;DHT22;1985;48.592;8.850;2023-06-01T08:56:15;22.70;62.30
3942;DHT22;1985;48.592;8.850;2023-06-01T08:58:43;22.70;62.40
3942;DHT22;1985;48.592;8.850;2023-06-01T09:01:12;22.90;62.30
3942;DHT22;1985;48.592;8.850;2023-06-01T09:03:41;23.00;61.70
3942;DHT22;1985;48.592;8.850;2023-06-01T09:06:06;23.10;62.80
3942;DHT22;1985;48.592;8.850;2023-06-01T09:08:32;23.00;61.10
3942;DHT22;1985;48.592;8.850;2023-06-01T09:10:58;23.10;62.00
3942;DHT22;1985;48.592;8.850;2023-06-01T09:13:33;23.20;62.10
3942;DHT22;1985;48.592;8.850;2023-06-01T09:16:00;23.20;62.10
3942;DHT22;1985;48.592;8.850;2023-06-01T09:18:25;23.30;62.20
3942;DHT22;1985;48.592;8.850;2023-06-01T09:20:51;23.30;61.50
3942;DHT22;1985;48.592;8.850;2023-06-01T09:23:27;23.40;61.30
3942;DHT22;1985;48.592;8.850;2023-06-01T09:26:06;23.50;60.30
3942;DHT22;1985;48.592;8.850;2023-06-01T09:28:59;23.60;61.50
3942;DHT22;1985;48.592;8.850;2023-06-01T09:31:45;23.70;59.60
3942;DHT22;1985;48.592;8.850;2023-06-01T09:34:13;23.70;59.90
3942;DHT22;1985;48.592;8.850;2023-06-01T09:36:44;23.80;60.00
3942;DHT22;1985;48.592;8.850;2023-06-01T09:39:12;23.80;59.70
3942;DHT22;1985;48.592;8.850;2023-06-01T09:44:21;24.00;59.30
3942;DHT22;1985;48.592;8.850;2023-06-01T09:46:49;24.10;59.50
3942;DHT22;1985;48.592;8.850;2023-06-01T09:49:20;24.20;58.90
3942;DHT22;1985;48.592;8.850;2023-06-01T09:51:47;24.30;55.80
3942;DHT22;1985;48.592;8.850;2023-06-01T09:54:26;24.50;56.40
3942;DHT22;1985;48.592;8.850;2023-06-01T09:56:54;24.70;54.50
3942;DHT22;1985;48.592;8.850;2023-06-01T09:59:21;24.80;54.40
3942;DHT22;1985;48.592;8.850;2023-06-01T10:01:53;24.90;56.00
3942;DHT22;1985;48.592;8.850;2023-06-01T10:04:27;24.80;57.30
3942;DHT22;1985;48.592;8.850;2023-06-01T10:06:55;25.10;57.30
3942;DHT22;1985;48.592;8.850;2023-06-01T10:09:23;25.30;57.30
3942;DHT22;1985;48.592;8.850;2023-06-01T10:11:51;25.60;57.40
3942;DHT22;1985;48.592;8.850;2023-06-01T10:14:19;25.70;54.40
3942;DHT22;1985;48.592;8.850;2023-06-01T10:16:45;26.00;54.20
3942;DHT22;1985;48.592;8.850;2023-06-01T10:19:13;26.20;54.80
3942;DHT22;1985;48.592;8.850;2023-06-01T10:21:39;26.40;54.30
3942;DHT22;1985;48.592;8.850;2023-06-01T10:24:06;26.60;53.80
3942;DHT22;1985;48.592;8.850;2023-06-01T10:27:24;26.70;53.90
3942;DHT22;1985;48.592;8.850;2023-06-01T10:29:31;26.90;54.50
3942;DHT22;1985;48.592;8.850;2023-06-01T10:31:57;26.80;53.50
3942;DHT22;1985;48.592;8.850;2023-06-01T10:34:52;27.00;54.90
3942;DHT22;1985;48.592;8.850;2023-06-01T10:37:18;27.30;53.80
3942;DHT22;1985;48.592;8.850;2023-06-01T10:39:44;27.30;53.60
3942;DHT22;1985;48.592;8.850;2023-06-01T10:52:37;27.80;50.30
3942;DHT22;1985;48.592;8.850;2023-06-01T10:57:35;26.80;50.00
3942;DHT22;1985;48.592;8.850;2023-06-01T11:00:26;26.50;51.10
3942;DHT22;1985;48.592;8.850;2023-06-01T11:03:05;26.60;51.90
3942;DHT22;1985;48.592;8.850;2023-06-01T11:05:51;27.00;51.20
3942;DHT22;1985;48.592;8.850;2023-06-01T11:13:39;27.90;48.60
3942;DHT22;1985;48.592;8.850;2023-06-01T11:21:21;28.40;47.50
3942;DHT22;1985;48.592;8.850;2023-06-01T11:23:47;28.50;47.90
3942;DHT22;1985;48.592;8.850;2023-06-01T11:26:15;28.50;46.50
3942;DHT22;1985;48.592;8.850;2023-06-01T11:28:42;28.50;47.20
3942;DHT22;1985;48.592;8.850;2023-06-01T11:31:13;28.60;46.50
3942;DHT22;1985;48.592;8.850;2023-06-01T11:33:48;28.80;47.10
3942;DHT22;1985;48.592;8.850;2023-06-01T11:36:14;28.90;46.20
3942;DHT22;1985;48.592;8.850;2023-06-01T11:38:43;29.00;45.60
3942;DHT22;1985;48.592;8.850;2023-06-01T11:41:09;29.00;45.20
3942;DHT22;1985;48.592;8.850;2023-06-01T11:43:35;29.10;45.80
3942;DHT22;1985;48.592;8.850;2023-06-01T11:46:06;29.00;45.80
3942;DHT22;1985;48.592;8.850;2023-06-01T11:48:40;29.10;45.60
3942;DHT22;1985;48.592;8.850;2023-06-01T11:51:06;29.20;45.40
3942;DHT22;1985;48.592;8.850;2023-06-01T11:53:32;29.20;44.90
3942;DHT22;1985;48.592;8.850;2023-06-01T11:55:58;29.30;45.50
3942;DHT22;1985;48.592;8.850;2023-06-01T11:58:28;29.30;45.40
3942;DHT22;1985;48.592;8.850;2023-06-01T12:00:55;29.20;45.00
3942;DHT22;1985;48.592;8.850;2023-06-01T12:03:21;29.20;46.20
3942;DHT22;1985;48.592;8.850;2023-06-01T12:05:49;29.30;45.30
3942;DHT22;1985;48.592;8.850;2023-06-01T12:08:20;29.30;44.70
3942;DHT22;1985;48.592;8.850;2023-06-01T12:10:48;29.20;44.00
3942;DHT22;1985;48.592;8.850;2023-06-01T12:13:15;29.10;44.00
3942;DHT22;1985;48.592;8.850;2023-06-01T12:15:40;29.10;44.20
3942;DHT22;1985;48.592;8.850;2023-06-01T12:18:06;29.10;45.00
3942;DHT22;1985;48.592;8.850;2023-06-01T12:23:15;29.10;44.60
3942;DHT22;1985;48.592;8.850;2023-06-01T12:25:53;29.30;46.30
3942;DHT22;1985;48.592;8.850;2023-06-01T12:28:21;29.20;45.20
3942;DHT22;1985;48.592;8.850;2023-06-01T12:30:47;29.00;45.80
3942;DHT22;1985;48.592;8.850;2023-06-01T12:33:33;28.70;45.50
3942;DHT22;1985;48.592;8.850;2023-06-01T12:35:59;28.80;45.10
3942;DHT22;1985;48.592;8.850;2023-06-01T12:38:25;28.70;45.20
3942;DHT22;1985;48.592;8.850;2023-06-01T12:41:09;28.50;45.30
3942;DHT22;1985;48.592;8.850;2023-06-01T12:43:35;28.40;45.50
3942;DHT22;1985;48.592;8.850;2023-06-01T12:46:02;28.20;45.50
3942;DHT22;1985;48.592;8.850;2023-06-01T12:48:31;28.00;46.80
3942;DHT22;1985;48.592;8.850;2023-06-01T12:51:01;28.20;47.00
3942;DHT22;1985;48.592;8.850;2023-06-01T12:53:27;28.20;45.90
3942;DHT22;1985;48.592;8.850;2023-06-01T12:55:53;28.20;45.30
3942;DHT22;1985;48.592;8.850;2023-06-01T12:58:19;28.00;46.40
3942;DHT22;1985;48.592;8.850;2023-06-01T13:00:45;27.90;46.60
3942;DHT22;1985;48.592;8.850;2023-06-01T13:03:11;28.10;47.60
3942;DHT22;1985;48.592;8.850;2023-06-01T13:05:36;28.20;46.20
3942;DHT22;1985;48.592;8.850;2023-06-01T13:08:03;28.30;45.50
3942;DHT22;1985;48.592;8.850;2023-06-01T13:10:28;28.40;45.10
3942;DHT22;1985;48.592;8.850;2023-06-01T13:12:55;28.40;44.80
3942;DHT22;1985;48.592;8.850;2023-06-01T13:15:23;28.40;45.50
3942;DHT22;1985;48.592;8.850;2023-06-01T13:17:49;28.50;45.60
3942;DHT22;1985;48.592;8.850;2023-06-01T13:20:14;28.60;46.20
3942;DHT22;1985;48.592;8.850;2023-06-01T13:22:42;28.50;43.80
3942;DHT22;1985;48.592;8.850;2023-06-01T13:25:09;28.30;44.40
3942;DHT22;1985;48.592;8.850;2023-06-01T13:27:35;28.20;45.80
3942;DHT22;1985;48.592;8.850;2023-06-01T13:30:01;28.20;45.40
3942;DHT22;1985;48.592;8.850;2023-06-01T13:32:27;28.10;45.40
3942;DHT22;1985;48.592;8.850;2023-06-01T13:34:53;28.00;45.00
3942;DHT22;1985;48.592;8.850;2023-06-01T13:37:19;27.90;46.30
3942;DHT22;1985;48.592;8.850;2023-06-01T13:39:45;28.00;44.10
3942;DHT22;1985;48.592;8.850;2023-06-01T13:42:10;27.90;45.50
3942;DHT22;1985;48.592;8.850;2023-06-01T13:44:36;27.90;46.70
3942;DHT22;1985;48.592;8.850;2023-06-01T13:47:02;27.80;45.20
3942;DHT22;1985;48.592;8.850;2023-06-01T13:49:28;27.90;44.90
3942;DHT22;1985;48.592;8.850;2023-06-01T13:51:54;27.90;45.80
3942;DHT22;1985;48.592;8.850;2023-06-01T13:54:19;28.00;46.30
3942;DHT22;1985;48.592;8.850;2023-06-01T13:56:46;28.00;45.50
3942;DHT22;1985;48.592;8.850;2023-06-01T13:59:11;27.90;44.00
3942;DHT22;1985;48.592;8.850;2023-06-01T14:01:37;28.00;43.40
3942;DHT22;1985;48.592;8.850;2023-06-01T14:04:03;28.00;44.10
3942;DHT22;1985;48.592;8.850;2023-06-01T14:06:28;28.10;44.20
3942;DHT22;1985;48.592;8.850;2023-06-01T14:08:54;28.20;44.10
3942;DHT22;1985;48.592;8.850;2023-06-01T14:11:20;28.20;44.60
3942;DHT22;1985;48.592;8.850;2023-06-01T14:13:46;28.00;43.90
3942;DHT22;1985;48.592;8.850;2023-06-01T14:16:12;28.00;43.40
3942;DHT22;1985;48.592;8.850;2023-06-01T14:18:37;28.00;43.20
3942;DHT22;1985;48.592;8.850;2023-06-01T14:21:03;28.00;43.40
3942;DHT22;1985;48.592;8.850;2023-06-01T14:23:29;28.00;44.20
3942;DHT22;1985;48.592;8.850;2023-06-01T14:25:55;27.90;43.30
3942;DHT22;1985;48.592;8.850;2023-06-01T14:28:21;27.80;44.20
3942;DHT22;1985;48.592;8.850;2023-06-01T14:30:46;27.80;43.60
3942;DHT22;1985;48.592;8.850;2023-06-01T14:33:12;27.60;43.80
3942;DHT22;1985;48.592;8.850;2023-06-01T14:35:38;27.60;44.10
3942;DHT22;1985;48.592;8.850;2023-06-01T14:38:03;27.40;43.60
3942;DHT22;1985;48.592;8.850;2023-06-01T14:40:29;27.20;43.90
3942;DHT22;1985;48.592;8.850;2023-06-01T14:42:54;27.10;43.80
3942;DHT22;1985;48.592;8.850;2023-06-01T14:45:20;26.90;43.80
3942;DHT22;1985;48.592;8.850;2023-06-01T14:47:47;27.00;44.50
3942;DHT22;1985;48.592;8.850;2023-06-01T14:50:13;27.00;44.40
3942;DHT22;1985;48.592;8.850;2023-06-01T14:52:38;26.90;44.70
3942;DHT22;1985;48.592;8.850;2023-06-01T14:55:05;26.80;44.70
3942;DHT22;1985;48.592;8.850;2023-06-01T14:57:30;26.80;44.70
3942;DHT22;1985;48.592;8.850;2023-06-01T14:59:57;26.90;44.80
3942;DHT22;1985;48.592;8.850;2023-06-01T15:02:22;26.80;44.70
3942;DHT22;1985;48.592;8.850;2023-06-01T15:04:48;26.70;45.20
3942;DHT22;1985;48.592;8.850;2023-06-01T15:07:14;26.80;44.70
3942;DHT22;1985;48.592;8.850;2023-06-01T15:09:39;26.90;44.20
3942;DHT22;1985;48.592;8.850;2023-06-01T15:12:05;26.90;45.30
3942;DHT22;1985;48.592;8.850;2023-06-01T15:14:31;26.60;45.10
3942;DHT22;1985;48.592;8.850;2023-06-01T15:16:56;26.50;44.90
3942;DHT22;1985;48.592;8.850;2023-06-01T15:19:22;26.20;45.30
3942;DHT22;1985;48.592;8.850;2023-06-01T15:21:48;26.20;44.80
3942;DHT22;1985;48.592;8.850;2023-06-01T15:24:13;26.20;45.90
3942;DHT22;1985;48.592;8.850;2023-06-01T15:26:41;26.30;44.70
3942;DHT22;1985;48.592;8.850;2023-06-01T15:29:07;26.30;45.10
3942;DHT22;1985;48.592;8.850;2023-06-01T15:31:32;26.30;45.20
3942;DHT22;1985;48.592;8.850;2023-06-01T15:33:58;26.30;45.10
3942;DHT22;1985;48.592;8.850;2023-06-01T15:36:23;26.20;45.00
3942;DHT22;1985;48.592;8.850;2023-06-01T15:38:49;26.30;45.50
3942;DHT22;1985;48.592;8.850;2023-06-01T15:41:15;26.30;45.00
3942;DHT22;1985;48.592;8.850;2023-06-01T15:43:40;26.30;44.20
3942;DHT22;1985;48.592;8.850;2023-06-01T15:46:06;26.30;43.50
3942;DHT22;1985;48.592;8.850;2023-06-01T15:48:31;26.40;43.80
3942;DHT22;1985;48.592;8.850;2023-06-01T15:50:58;26.30;44.30
3942;DHT22;1985;48.592;8.850;2023-06-01T15:53:23;26.20;44.10
3942;DHT22;1985;48.592;8.850;2023-06-01T15:55:49;26.10;44.60
3942;DHT22;1985;48.592;8.850;2023-06-01T15:58:15;26.00;44.90
3942;DHT22;1985;48.592;8.850;2023-06-01T16:00:42;26.00;44.90
3942;DHT22;1985;48.592;8.850;2023-06-01T16:03:08;26.00;44.40
3942;DHT22;1985;48.592;8.850;2023-06-01T16:05:33;26.00;44.60
3942;DHT22;1985;48.592;8.850;2023-06-01T16:07:59;26.00;44.20
3942;DHT22;1985;48.592;8.850;2023-06-01T16:10:25;26.00;44.20
3942;DHT22;1985;48.592;8.850;2023-06-01T16:12:50;25.90;44.20
3942;DHT22;1985;48.592;8.850;2023-06-01T16:15:16;25.90;43.70
3942;DHT22;1985;48.592;8.850;2023-06-01T16:17:41;25.80;44.30
3942;DHT22;1985;48.592;8.850;2023-06-01T16:20:07;25.80;44.80
3942;DHT22;1985;48.592;8.850;2023-06-01T16:22:33;25.80;44.20
3942;DHT22;1985;48.592;8.850;2023-06-01T16:24:59;25.80;44.00
3942;DHT22;1985;48.592;8.850;2023-06-01T16:27:25;25.80;43.30
3942;DHT22;1985;48.592;8.850;2023-06-01T16:29:51;25.80;43.50
3942;DHT22;1985;48.592;8.850;2023-06-01T16:32:17;25.80;43.00
3942;DHT22;1985;48.592;8.850;2023-06-01T16:34:42;25.70;42.50
3942;DHT22;1985;48.592;8.850;2023-06-01T16:37:08;25.70;42.20
3942;DHT22;1985;48.592;8.850;2023-06-01T16:39:34;25.70;42.30
3942;DHT22;1985;48.592;8.850;2023-06-01T16:42:00;25.60;42.40
3942;DHT22;1985;48.592;8.850;2023-06-01T16:44:25;25.70;42.50
3942;DHT22;1985;48.592;8.850;2023-06-01T16:46:51;25.70;42.30